Time;durP1;ratioP1;P1;durP2;ratioP2;P2;SDS_P1;SDS_P2;PMS_P1;PMS_P2;Temp;Humidity;BMP_temperature;BMP_pressure;BME280_temperature;BME280_humidity;BME280_pressure;Samples;Min_cycle;Max_cycle;Signal;HPM_P1;HPM_P2
2023/08/03 00:01:59;;;;;;;20.58;18.48;;;;;;;;;;4933386;29;20075;-57
2023/08/03 00:04:25;;;;;;;21.80;19.50;;;;;;;;;;4931614;29;20035;-55
2023/08/03 00:06:51;;;;;;;20.98;18.67;;;;;;;;;;4933437;29;20028;-57
2023/08/03 00:09:18;;;;;;;22.40;19.95;;;;;;;;;;4933249;29;20027;-56
2023/08/03 00:11:44;;;;;;;21.95;19.70;;;;;;;;;;4933752;28;20460;-57
2023/08/03 00:14:10;;;;;;;22.38;19.67;;;;;;;;;;4931195;29;20032;-55
2023/08/03 00:16:36;;;;;;;22.15;19.92;;;;;;;;;;4933228;29;20392;-56
2023/08/03 00:19:02;;;;;;;21.50;19.25;;;;;;;;;;4931888;29;20031;-56
2023/08/03 00:21:28;;;;;;;22.05;19.73;;;;;;;;;;4933253;29;20052;-56
2023/08/03 00:23:54;;;;;;;21.60;19.40;;;;;;;;;;4932745;29;20035;-57
2023/08/03 00:26:20;;;;;;;20.85;18.85;;;;;;;;;;4932702;29;20480;-57
2023/08/03 00:28:46;;;;;;;20.33;18.13;;;;;;;;;;4931580;29;20043;-57
2023/08/03 00:31:12;;;;;;;24.08;19.00;;;;;;;;;;4933066;29;20099;-56
2023/08/03 00:33:38;;;;;;;19.75;17.45;;;;;;;;;;4933061;29;20648;-55
2023/08/03 00:36:04;;;;;;;22.73;20.65;;;;;;;;;;4931050;29;20024;-57
2023/08/03 00:38:30;;;;;;;33.83;31.20;;;;;;;;;;4932741;29;20028;-56
2023/08/03 00:40:56;;;;;;;33.92;31.27;;;;;;;;;;4932960;29;20034;-56
2023/08/03 00:43:22;;;;;;;32.35;29.75;;;;;;;;;;4932693;29;20028;-55
2023/08/03 00:45:48;;;;;;;28.33;25.92;;;;;;;;;;4931986;29;20484;-55
2023/08/03 00:48:14;;;;;;;28.75;26.23;;;;;;;;;;4931448;29;20117;-57
2023/08/03 00:50:40;;;;;;;28.73;26.33;;;;;;;;;;4932767;29;20026;-55
2023/08/03 00:53:06;;;;;;;32.60;30.00;;;;;;;;;;4932589;29;20161;-57
2023/08/03 00:55:33;;;;;;;35.75;32.78;;;;;;;;;;4931753;29;20488;-54
2023/08/03 00:57:59;;;;;;;35.30;32.50;;;;;;;;;;4932219;29;20619;-53
2023/08/03 01:00:25;;;;;;;35.70;32.70;;;;;;;;;;4932600;29;20030;-55
2023/08/03 01:02:51;;;;;;;43.33;39.83;;;;;;;;;;4932427;29;20140;-55
2023/08/03 01:05:17;;;;;;;42.30;38.97;;;;;;;;;;4931701;29;20051;-55
2023/08/03 01:07:43;;;;;;;38.55;35.65;;;;;;;;;;4931279;29;20094;-56
2023/08/03 01:10:09;;;;;;;37.20;34.30;;;;;;;;;;4931085;29;20127;-51
2023/08/03 01:12:35;;;;;;;38.10;35.05;;;;;;;;;;4932423;29;20103;-54
2023/08/03 01:15:02;;;;;;;34.42;31.50;;;;;;;;;;4931550;29;20514;-54
2023/08/03 01:17:28;;;;;;;34.60;32.00;;;;;;;;;;4932108;29;20063;-56
2023/08/03 01:19:54;;;;;;;34.75;31.85;;;;;;;;;;4932135;29;20050;-56
2023/08/03 01:22:20;;;;;;;35.08;32.08;;;;;;;;;;4932291;29;20032;-52
2023/08/03 01:24:46;;;;;;;29.00;26.60;;;;;;;;;;4931536;29;20026;-56
2023/08/03 01:27:12;;;;;;;27.63;25.23;;;;;;;;;;4932046;29;20028;-55
2023/08/03 01:29:38;;;;;;;27.48;24.98;;;;;;;;;;4932049;29;20090;-54
2023/08/03 01:32:04;;;;;;;25.90;23.60;;;;;;;;;;4932227;29;20472;-55
2023/08/03 01:34:30;;;;;;;25.40;22.95;;;;;;;;;;4931511;29;20039;-53
2023/08/03 01:36:56;;;;;;;25.45;23.13;;;;;;;;;;4932038;29;20063;-52
2023/08/03 01:39:24;;;;;;;23.73;21.52;;;;;;;;;;4931793;29;20377;-54
2023/08/03 01:41:51;;;;;;;24.05;21.95;;;;;;;;;;4930447;29;20073;-54
2023/08/03 01:44:21;;;;;;;24.30;22.17;;;;;;;;;;4931186;29;20019;-53
2023/08/03 01:46:48;;;;;;;26.73;24.33;;;;;;;;;;4923827;29;20162;-57
2023/08/03 01:49:14;;;;;;;28.95;26.50;;;;;;;;;;4931560;29;20032;-53
2023/08/03 01:51:40;;;;;;;26.58;24.30;;;;;;;;;;4931704;29;20028;-54
2023/08/03 01:54:06;;;;;;;27.75;25.33;;;;;;;;;;4931301;29;20028;-53
2023/08/03 01:56:32;;;;;;;28.27;25.98;;;;;;;;;;4931637;29;20032;-54
2023/08/03 01:58:58;;;;;;;24.10;22.00;;;;;;;;;;4931653;29;20603;-54
2023/08/03 02:01:24;;;;;;;21.25;19.35;;;;;;;;;;4931783;29;20031;-53
2023/08/03 02:03:50;;;;;;;19.60;17.80;;;;;;;;;;4931594;29;20024;-53
2023/08/03 02:06:16;;;;;;;17.90;16.20;;;;;;;;;;4930988;29;20028;-55
2023/08/03 02:08:42;;;;;;;17.25;15.55;;;;;;;;;;4931573;29;20028;-56
2023/08/03 02:11:08;;;;;;;17.15;15.45;;;;;;;;;;4931439;29;20519;-52
2023/08/03 02:13:34;;;;;;;17.17;15.48;;;;;;;;;;4931471;29;20110;-55
2023/08/03 02:16:03;;;;;;;17.33;15.63;;;;;;;;;;4930911;29;20032;-55
2023/08/03 02:18:30;;;;;;;17.38;15.68;;;;;;;;;;4931491;29;20107;-53
2023/08/03 02:20:55;;;;;;;17.67;15.98;;;;;;;;;;4931520;29;20019;-55
2023/08/03 02:23:22;;;;;;;17.73;16.02;;;;;;;;;;4931443;29;20039;-57
2023/08/03 02:25:47;;;;;;;19.13;17.33;;;;;;;;;;4929472;29;20481;-55
2023/08/03 02:28:13;;;;;;;19.13;17.33;;;;;;;;;;4931364;29;20081;-55
2023/08/03 02:30:39;;;;;;;20.50;18.60;;;;;;;;;;4929961;29;20500;-55
2023/08/03 02:33:06;;;;;;;21.60;19.70;;;;;;;;;;4931244;29;20023;-54
2023/08/03 02:35:34;;;;;;;21.50;19.60;;;;;;;;;;4930720;29;20050;-56
2023/08/03 02:37:59;;;;;;;19.70;17.90;;;;;;;;;;4931117;29;20439;-54
2023/08/03 02:40:25;;;;;;;20.48;18.58;;;;;;;;;;4929845;29;20122;-53
2023/08/03 02:42:51;;;;;;;19.40;17.60;;;;;;;;;;4931070;29;20062;-55
2023/08/03 02:45:17;;;;;;;19.38;17.58;;;;;;;;;;4930320;29;20036;-56
2023/08/03 02:47:43;;;;;;;18.77;16.98;;;;;;;;;;4931118;29;20032;-48
2023/08/03 02:50:09;;;;;;;19.55;17.75;;;;;;;;;;4930951;29;20447;-55
2023/08/03 02:52:35;;;;;;;19.38;17.58;;;;;;;;;;4931146;29;20504;-53
2023/08/03 02:55:01;;;;;;;21.58;19.67;;;;;;;;;;4933626;29;20026;-51
2023/08/03 02:57:27;;;;;;;20.85;18.95;;;;;;;;;;4934467;29;20024;-49
2023/08/03 02:59:53;;;;;;;21.50;19.60;;;;;;;;;;4934026;29;20023;-48
2023/08/03 03:02:19;;;;;;;24.00;22.00;;;;;;;;;;4934306;29;20031;-50
2023/08/03 03:04:46;;;;;;;22.88;20.88;;;;;;;;;;4933499;29;20480;-55
2023/08/03 03:07:12;;;;;;;24.25;22.25;;;;;;;;;;4934134;29;20096;-48
2023/08/03 03:09:38;;;;;;;24.55;22.45;;;;;;;;;;4934286;29;20102;-54
2023/08/03 03:12:04;;;;;;;23.52;21.52;;;;;;;;;;4934149;29;20062;-56
2023/08/03 03:14:30;;;;;;;23.55;21.55;;;;;;;;;;4933462;29;20390;-56
2023/08/03 03:16:56;;;;;;;24.70;22.60;;;;;;;;;;4934191;29;20559;-56
2023/08/03 03:19:22;;;;;;;22.70;20.73;;;;;;;;;;4932536;29;20082;-57
2023/08/03 03:21:47;;;;;;;29.25;27.05;;;;;;;;;;4933794;29;20078;-52
2023/08/03 03:24:13;;;;;;;24.15;22.15;;;;;;;;;;4933081;29;20023;-54
2023/08/03 03:26:39;;;;;;;20.42;18.63;;;;;;;;;;4933842;29;20430;-55
2023/08/03 03:29:06;;;;;;;23.30;20.13;;;;;;;;;;4932411;29;20039;-58
2023/08/03 03:31:32;;;;;;;19.15;17.35;;;;;;;;;;4933892;29;20492;-57
2023/08/03 03:33:57;;;;;;;17.52;15.82;;;;;;;;;;4933312;29;20040;-49
2023/08/03 03:36:23;;;;;;;17.38;15.68;;;;;;;;;;4933623;29;20034;-52
2023/08/03 03:38:49;;;;;;;19.48;17.67;;;;;;;;;;4933475;29;20028;-57
2023/08/03 03:41:15;;;;;;;18.27;16.48;;;;;;;;;;4933802;29;20395;-56
2023/08/03 03:43:41;;;;;;;18.83;17.02;;;;;;;;;;4933536;29;20085;-54
2023/08/03 03:46:07;;;;;;;18.10;16.30;;;;;;;;;;4932793;29;20124;-55
2023/08/03 03:48:33;;;;;;;19.25;17.45;;;;;;;;;;4933466;29;20027;-54
2023/08/03 03:50:59;;;;;;;18.20;16.40;;;;;;;;;;4933620;29;20085;-55
2023/08/03 03:53:25;;;;;;;21.33;19.23;;;;;;;;;;4933545;29;20377;-53
2023/08/03 03:55:51;;;;;;;19.88;18.08;;;;;;;;;;4933316;28;20050;-51
2023/08/03 03:58:17;;;;;;;20.58;18.67;;;;;;;;;;4933308;29;20027;-56
2023/08/03 04:00:43;;;;;;;20.05;18.25;;;;;;;;;;4932272;29;20114;-55
2023/08/03 04:03:09;;;;;;;21.27;19.38;;;;;;;;;;4932950;29;20035;-54
2023/08/03 04:05:36;;;;;;;23.10;21.10;;;;;;;;;;4932545;29;20027;-57
2023/08/03 04:08:02;;;;;;;21.00;19.10;;;;;;;;;;4933233;29;20035;-54
2023/08/03 04:10:29;;;;;;;22.27;20.23;;;;;;;;;;4932962;29;20031;-52
2023/08/03 04:12:55;;;;;;;23.90;21.90;;;;;;;;;;4933708;29;20472;-55
2023/08/03 04:15:21;;;;;;;23.73;21.73;;;;;;;;;;4932697;29;20031;-51
2023/08/03 04:17:50;;;;;;;21.88;19.98;;;;;;;;;;4932731;29;20492;-54
2023/08/03 04:20:17;;;;;;;20.50;18.60;;;;;;;;;;4933015;29;20391;-57
2023/08/03 04:22:43;;;;;;;18.90;17.10;;;;;;;;;;4932857;29;20031;-52
2023/08/03 04:25:09;;;;;;;18.98;17.15;;;;;;;;;;4932236;29;20030;-57
2023/08/03 04:27:35;;;;;;;17.05;15.35;;;;;;;;;;4932987;29;20032;-55
2023/08/03 04:30:01;;;;;;;16.52;14.82;;;;;;;;;;4932889;29;20449;-56
2023/08/03 04:32:27;;;;;;;18.00;16.20;;;;;;;;;;4932656;29;20028;-55
2023/08/03 04:34:53;;;;;;;18.75;16.95;;;;;;;;;;4932034;29;20031;-57
2023/08/03 04:37:19;;;;;;;17.90;16.15;;;;;;;;;;4932554;29;20035;-55
2023/08/03 04:39:46;;;;;;;18.55;16.75;;;;;;;;;;4932453;29;20542;-57
2023/08/03 04:42:12;;;;;;;18.33;16.52;;;;;;;;;;4932583;29;20030;-54
2023/08/03 04:44:38;;;;;;;18.02;16.23;;;;;;;;;;4931615;29;20024;-56
2023/08/03 04:47:04;;;;;;;18.27;16.48;;;;;;;;;;4932754;29;20034;-55
2023/08/03 04:49:30;;;;;;;18.17;16.38;;;;;;;;;;4932409;29;20517;-57
2023/08/03 04:51:56;;;;;;;18.40;16.60;;;;;;;;;;4932321;29;20020;-55
2023/08/03 04:54:22;;;;;;;18.83;17.02;;;;;;;;;;4931726;29;20423;-57
2023/08/03 04:56:48;;;;;;;18.42;16.63;;;;;;;;;;4932730;29;20365;-58
2023/08/03 04:59:14;;;;;;;18.75;16.95;;;;;;;;;;4932238;29;20055;-58
2023/08/03 05:01:40;;;;;;;19.85;18.05;;;;;;;;;;4932393;29;20060;-56
2023/08/03 05:04:06;;;;;;;21.92;20.02;;;;;;;;;;4931777;29;20107;-57
2023/08/03 05:06:32;;;;;;;26.70;24.50;;;;;;;;;;4932470;29;20020;-55
2023/08/03 05:08:58;;;;;;;29.40;27.10;;;;;;;;;;4932490;29;20496;-51
2023/08/03 05:11:25;;;;;;;29.08;26.77;;;;;;;;;;4932562;29;20147;-51
2023/08/03 05:13:51;;;;;;;27.77;25.58;;;;;;;;;;4932401;29;20032;-50
2023/08/03 05:16:23;;;;;;;26.60;24.40;;;;;;;;;;4925417;29;20058;-54
2023/08/03 05:18:49;;;;;;;25.83;23.63;;;;;;;;;;4931937;29;20027;-54
2023/08/03 05:21:15;;;;;;;27.02;24.83;;;;;;;;;;4932138;29;20484;-54
2023/08/03 05:23:41;;;;;;;25.20;23.10;;;;;;;;;;4932198;29;20078;-57
2023/08/03 05:26:07;;;;;;;24.55;22.45;;;;;;;;;;4931337;29;20451;-55
2023/08/03 05:28:33;;;;;;;24.02;22.02;;;;;;;;;;4931752;29;20040;-56
2023/08/03 05:30:59;;;;;;;24.63;22.55;;;;;;;;;;4932020;29;20035;-56
2023/08/03 05:33:26;;;;;;;22.05;20.15;;;;;;;;;;4933203;29;20457;-56
2023/08/03 05:35:52;;;;;;;20.80;18.90;;;;;;;;;;4931012;29;20369;-54
2023/08/03 05:38:18;;;;;;;19.90;18.10;;;;;;;;;;4931299;29;20035;-52
2023/08/03 05:40:44;;;;;;;19.73;17.92;;;;;;;;;;4931654;29;20396;-51
2023/08/03 05:43:11;;;;;;;20.25;18.35;;;;;;;;;;4931642;29;20024;-55
2023/08/03 05:45:43;;;;;;;19.27;17.48;;;;;;;;;;4930494;29;20425;-52
2023/08/03 05:48:13;;;;;;;19.58;17.77;;;;;;;;;;4931601;29;20534;-57
2023/08/03 05:50:45;;;;;;;25.45;23.35;;;;;;;;;;4931257;29;20062;-56
2023/08/03 05:53:12;;;;;;;17.77;16.08;;;;;;;;;;4931301;29;20036;-50
2023/08/03 05:55:39;;;;;;;15.82;14.13;;;;;;;;;;4930078;29;20492;-51
2023/08/03 05:58:05;;;;;;;15.00;13.10;;;;;;;;;;4931175;29;20346;-53
2023/08/03 06:00:31;;;;;;;15.23;13.35;;;;;;;;;;4929796;29;20035;-51
2023/08/03 06:02:58;;;;;;;14.88;12.73;;;;;;;;;;4931023;29;20027;-51
2023/08/03 06:05:34;;;;;;;16.55;12.98;;;;;;;;;;4930743;29;20078;-56
2023/08/03 06:08:00;;;;;;;15.48;12.40;;;;;;;;;;4931133;29;20130;-55
2023/08/03 06:10:27;;;;;;;14.40;11.13;;;;;;;;;;4930848;29;20051;-56
2023/08/03 06:12:53;;;;;;;14.32;11.23;;;;;;;;;;4931072;29;20027;-53
2023/08/03 06:15:20;;;;;;;15.00;12.82;;;;;;;;;;4930842;29;20039;-53
2023/08/03 06:17:46;;;;;;;15.90;14.20;;;;;;;;;;4931174;29;20209;-52
2023/08/03 06:20:14;;;;;;;15.90;14.20;;;;;;;;;;4931089;29;20027;-52
2023/08/03 06:22:40;;;;;;;15.50;13.80;;;;;;;;;;4931490;29;20020;-55
2023/08/03 06:25:09;;;;;;;18.30;16.50;;;;;;;;;;4930768;29;20283;-48
2023/08/03 06:27:35;;;;;;;18.55;16.75;;;;;;;;;;4934577;29;20499;-54
2023/08/03 06:30:02;;;;;;;15.80;14.10;;;;;;;;;;4934298;29;20122;-51
2023/08/03 06:32:30;;;;;;;20.02;18.23;;;;;;;;;;4936171;28;20515;-54
2023/08/03 06:34:56;;;;;;;20.52;18.73;;;;;;;;;;4951071;28;20397;-53
2023/08/03 06:37:22;;;;;;;18.92;17.13;;;;;;;;;;4969796;28;20029;-54
2023/08/03 06:39:51;;;;;;;16.65;14.95;;;;;;;;;;5034828;28;20025;-53
2023/08/03 06:42:17;;;;;;;21.80;19.90;;;;;;;;;;4971551;28;20242;-52
2023/08/03 06:44:43;;;;;;;20.38;18.58;;;;;;;;;;4933666;29;20366;-50
2023/08/03 06:47:09;;;;;;;18.60;16.80;;;;;;;;;;4933368;29;20375;-50
2023/08/03 06:49:35;;;;;;;19.52;17.73;;;;;;;;;;4989532;28;20029;-49
2023/08/03 06:52:01;;;;;;;21.38;19.25;;;;;;;;;;5034320;28;20036;-52
2023/08/03 06:54:28;;;;;;;21.27;19.38;;;;;;;;;;5033894;28;20033;-52
2023/08/03 06:56:54;;;;;;;18.60;16.80;;;;;;;;;;5033926;28;20489;-55
2023/08/03 06:59:23;;;;;;;18.67;16.88;;;;;;;;;;5033865;28;20033;-55
2023/08/03 07:01:50;;;;;;;11.60;6.90;;;;;;;;;;5034015;28;20104;-65
2023/08/03 07:04:16;;;;;;;12.60;7.50;;;;;;;;;;5033529;28;20499;-64
2023/08/03 07:06:43;;;;;;;12.73;7.55;;;;;;;;;;5021670;28;20080;-65
2023/08/03 07:09:09;;;;;;;12.23;7.28;;;;;;;;;;4933762;29;20028;-67
2023/08/03 07:11:35;;;;;;;9.75;5.80;;;;;;;;;;4933886;29;20059;-66
2023/08/03 07:14:01;;;;;;;9.35;5.70;;;;;;;;;;4933370;29;20028;-66
2023/08/03 07:16:28;;;;;;;6.45;3.83;;;;;;;;;;4933780;29;20099;-66
2023/08/03 07:18:54;;;;;;;6.85;4.07;;;;;;;;;;4948063;28;20027;-67
2023/08/03 07:21:20;;;;;;;8.25;4.90;;;;;;;;;;4933333;29;20034;-66
2023/08/03 07:23:46;;;;;;;8.38;5.00;;;;;;;;;;4948416;28;20024;-65
2023/08/03 07:26:15;;;;;;;9.23;5.53;;;;;;;;;;4947839;28;20034;-66
2023/08/03 07:28:41;;;;;;;8.82;5.28;;;;;;;;;;4933650;29;20459;-67
2023/08/03 07:31:13;;;;;;;7.80;4.68;;;;;;;;;;4933983;29;20066;-66
2023/08/03 07:33:39;;;;;;;8.70;5.10;;;;;;;;;;4933824;29;20042;-66
2023/08/03 07:36:05;;;;;;;9.63;5.78;;;;;;;;;;4933043;28;20028;-64
2023/08/03 07:38:31;;;;;;;6.60;3.90;;;;;;;;;;4932916;28;20495;-63
2023/08/03 07:40:57;;;;;;;3.92;2.30;;;;;;;;;;4932232;28;20501;-64
2023/08/03 07:43:23;;;;;;;4.13;2.42;;;;;;;;;;4932130;28;20024;-56
2023/08/03 07:45:49;;;;;;;4.30;2.60;;;;;;;;;;4930785;28;20512;-55
2023/08/03 07:48:15;;;;;;;4.30;2.60;;;;;;;;;;4930996;28;20115;-52
2023/08/03 07:50:41;;;;;;;5.10;3.10;;;;;;;;;;4932679;28;20020;-55
2023/08/03 07:53:07;;;;;;;5.30;3.10;;;;;;;;;;4932927;28;20041;-56
2023/08/03 07:55:33;;;;;;;5.43;3.30;;;;;;;;;;4932180;28;20038;-58
2023/08/03 07:57:59;;;;;;;5.82;3.45;;;;;;;;;;4932644;28;20086;-55
2023/08/03 08:00:25;;;;;;;7.20;4.30;;;;;;;;;;4932928;28;20036;-54
2023/08/03 08:02:51;;;;;;;8.43;5.00;;;;;;;;;;4933102;28;20032;-57
2023/08/03 08:05:17;;;;;;;9.52;5.85;;;;;;;;;;4932518;28;20054;-52
2023/08/03 08:07:43;;;;;;;8.70;5.15;;;;;;;;;;4933226;28;20036;-57
2023/08/03 08:10:12;;;;;;;8.63;5.15;;;;;;;;;;4932895;28;20035;-55
2023/08/03 08:12:38;;;;;;;11.65;6.97;;;;;;;;;;4932820;29;20032;-53
2023/08/03 08:15:04;;;;;;;9.90;5.82;;;;;;;;;;4932460;29;20043;-54
2023/08/03 08:17:30;;;;;;;10.50;6.20;;;;;;;;;;4932824;29;20066;-56
2023/08/03 08:19:57;;;;;;;9.68;5.70;;;;;;;;;;4933197;29;20081;-56
2023/08/03 08:22:23;;;;;;;11.30;6.85;;;;;;;;;;4932642;29;20038;-55
2023/08/03 08:24:49;;;;;;;11.02;6.53;;;;;;;;;;4931753;29;20032;-55
2023/08/03 08:27:16;;;;;;;13.55;8.73;;;;;;;;;;4932471;29;20035;-53
2023/08/03 08:29:45;;;;;;;13.60;8.98;;;;;;;;;;4932063;29;20039;-57
2023/08/03 08:32:11;;;;;;;13.60;8.90;;;;;;;;;;4932701;29;20070;-58
2023/08/03 08:34:37;;;;;;;13.52;8.60;;;;;;;;;;4932238;29;20107;-58
2023/08/03 08:37:03;;;;;;;13.48;8.50;;;;;;;;;;4932684;28;20028;-54
2023/08/03 08:39:29;;;;;;;13.60;8.80;;;;;;;;;;4932519;28;20030;-57
2023/08/03 08:41:56;;;;;;;13.60;9.00;;;;;;;;;;4932416;28;20032;-54
2023/08/03 08:44:22;;;;;;;13.63;9.05;;;;;;;;;;4931497;28;20038;-53
2023/08/03 08:46:48;;;;;;;13.82;9.52;;;;;;;;;;4932358;28;20346;-56
2023/08/03 08:49:14;;;;;;;13.85;9.52;;;;;;;;;;4931806;28;20135;-58
2023/08/03 08:51:44;;;;;;;13.80;9.43;;;;;;;;;;4931705;28;20094;-56
2023/08/03 08:54:10;;;;;;;14.68;10.75;;;;;;;;;;4931337;29;20036;-57
2023/08/03 08:56:36;;;;;;;14.10;10.35;;;;;;;;;;4932645;29;20078;-57
2023/08/03 08:59:02;;;;;;;14.02;10.07;;;;;;;;;;4932082;29;20039;-56
2023/08/03 09:01:47;;;;;;;15.23;12.45;;;;;;;;;;4932324;29;20099;-53
2023/08/03 09:04:13;;;;;;;14.40;10.90;;;;;;;;;;4931977;29;20115;-55
2023/08/03 09:06:45;;;;;;;14.07;10.27;;;;;;;;;;4932174;29;20052;-56
2023/08/03 09:09:11;;;;;;;14.25;10.77;;;;;;;;;;4931972;29;20032;-54
2023/08/03 09:11:38;;;;;;;14.20;10.65;;;;;;;;;;4932304;29;20035;-55
2023/08/03 09:14:05;;;;;;;14.40;11.23;;;;;;;;;;4931771;29;20107;-58
2023/08/03 09:16:31;;;;;;;25.10;14.10;;;;;;;;;;4932499;29;20472;-55
2023/08/03 09:18:58;;;;;;;14.73;12.15;;;;;;;;;;4932006;29;20031;-56
2023/08/03 09:21:24;;;;;;;15.00;12.90;;;;;;;;;;4932129;29;20063;-56
2023/08/03 09:23:50;;;;;;;14.65;11.88;;;;;;;;;;4932323;29;20050;-57
2023/08/03 09:26:21;;;;;;;15.27;13.48;;;;;;;;;;4932359;29;20020;-55
2023/08/03 09:28:47;;;;;;;15.60;13.63;;;;;;;;;;4931712;29;20032;-58
2023/08/03 09:31:22;;;;;;;15.70;14.00;;;;;;;;;;4931806;29;20031;-57
2023/08/03 09:33:57;;;;;;;15.98;14.27;;;;;;;;;;4932523;29;20028;-57
2023/08/03 09:36:23;;;;;;;23.60;15.70;;;;;;;;;;4931714;28;20089;-58
2023/08/03 09:38:49;;;;;;;17.23;15.50;;;;;;;;;;4932508;29;20034;-56
2023/08/03 09:41:15;;;;;;;17.13;15.43;;;;;;;;;;4931942;29;20388;-58
2023/08/03 09:43:41;;;;;;;16.52;14.82;;;;;;;;;;4932687;29;20031;-60
2023/08/03 09:46:07;;;;;;;16.90;15.20;;;;;;;;;;4931694;29;20027;-55
2023/08/03 09:48:33;;;;;;;16.80;15.10;;;;;;;;;;5015421;28;20033;-59
2023/08/03 09:50:59;;;;;;;17.02;15.32;;;;;;;;;;5032211;28;20025;-57
2023/08/03 09:53:36;;;;;;;17.35;15.65;;;;;;;;;;5031880;28;20545;-59
2023/08/03 09:56:02;;;;;;;17.85;16.10;;;;;;;;;;5031074;28;20095;-54
2023/08/03 09:58:32;;;;;;;17.65;15.95;;;;;;;;;;5031741;28;20029;-54
2023/08/03 10:00:59;;;;;;;17.30;15.60;;;;;;;;;;5031331;28;20033;-55
2023/08/03 10:03:27;;;;;;;18.02;16.23;;;;;;;;;;5031562;28;20107;-53
2023/08/03 10:05:57;;;;;;;19.40;17.60;;;;;;;;;;5030841;28;20022;-56
2023/08/03 10:08:31;;;;;;;19.48;17.67;;;;;;;;;;5031242;28;20022;-53
2023/08/03 10:11:03;;;;;;;20.70;18.80;;;;;;;;;;5030078;28;20033;-57
2023/08/03 10:13:33;;;;;;;19.75;17.95;;;;;;;;;;5031309;28;20064;-56
2023/08/03 10:16:01;;;;;;;23.73;19.17;;;;;;;;;;5030659;28;20041;-50
2023/08/03 10:18:27;;;;;;;22.70;20.70;;;;;;;;;;5031021;28;20455;-57
2023/08/03 10:20:54;;;;;;;24.67;22.48;;;;;;;;;;5031027;28;20033;-56
2023/08/03 10:23:21;;;;;;;23.55;21.50;;;;;;;;;;5031281;28;20155;-57
2023/08/03 10:25:52;;;;;;;22.45;20.45;;;;;;;;;;5030443;28;20090;-58
2023/08/03 10:28:19;;;;;;;22.35;20.35;;;;;;;;;;5031278;28;20478;-54
2023/08/03 10:31:03;;;;;;;23.45;21.35;;;;;;;;;;5029491;28;20025;-57
2023/08/03 10:33:52;;;;;;;22.23;20.23;;;;;;;;;;5030954;28;20135;-54
2023/08/03 10:36:27;;;;;;;20.77;18.88;;;;;;;;;;4969722;28;20550;-55
2023/08/03 10:38:53;;;;;;;21.45;19.55;;;;;;;;;;4930543;29;20487;-54
2023/08/03 10:41:21;;;;;;;22.40;20.40;;;;;;;;;;4930881;29;20016;-57
2023/08/03 10:44:07;;;;;;;21.27;19.38;;;;;;;;;;4930754;29;20468;-55
2023/08/03 10:46:47;;;;;;;22.20;20.20;;;;;;;;;;4930547;29;20078;-56
2023/08/03 10:49:16;;;;;;;22.30;20.30;;;;;;;;;;4930470;29;20538;-56
2023/08/03 10:51:42;;;;;;;21.13;19.23;;;;;;;;;;4930385;29;20486;-55
2023/08/03 10:54:08;;;;;;;21.27;19.38;;;;;;;;;;4930020;29;20107;-55
2023/08/03 10:56:34;;;;;;;21.95;20.05;;;;;;;;;;4929125;28;20031;-58
2023/08/03 10:59:02;;;;;;;22.30;20.27;;;;;;;;;;4930666;29;20104;-54
2023/08/03 11:01:29;;;;;;;21.73;19.83;;;;;;;;;;4930823;29;20024;-57
2023/08/03 11:03:55;;;;;;;21.25;19.35;;;;;;;;;;4930372;29;20034;-55
2023/08/03 11:06:21;;;;;;;21.65;19.75;;;;;;;;;;4930385;29;20042;-55
2023/08/03 11:08:48;;;;;;;21.50;19.60;;;;;;;;;;4929102;29;20395;-54
2023/08/03 11:11:22;;;;;;;22.63;20.63;;;;;;;;;;4926313;29;20107;-51
2023/08/03 11:13:48;;;;;;;23.90;21.80;;;;;;;;;;4932310;29;20064;-58
2023/08/03 11:16:20;;;;;;;22.30;20.30;;;;;;;;;;4924011;29;20151;-57
2023/08/03 11:18:46;;;;;;;21.38;19.45;;;;;;;;;;4927865;29;20036;-57
2023/08/03 11:21:12;;;;;;;22.10;20.20;;;;;;;;;;4980159;28;20085;-58
2023/08/03 11:23:38;;;;;;;21.08;19.17;;;;;;;;;;4992158;28;20024;-53
2023/08/03 11:26:06;;;;;;;21.30;19.40;;;;;;;;;;5033854;28;20072;-56
2023/08/03 11:28:59;;;;;;;20.85;18.95;;;;;;;;;;5033981;28;20454;-60
2023/08/03 11:31:25;;;;;;;20.13;18.33;;;;;;;;;;5001733;28;20044;-56
2023/08/03 11:33:52;;;;;;;20.25;18.45;;;;;;;;;;4978231;22;20509;-55
2023/08/03 11:36:18;;;;;;;19.85;18.05;;;;;;;;;;4941477;28;20026;-54
2023/08/03 11:38:44;;;;;;;19.77;17.98;;;;;;;;;;4943064;28;20027;-53
2023/08/03 11:41:15;;;;;;;19.50;17.70;;;;;;;;;;4932455;28;20051;-58
2023/08/03 11:43:41;;;;;;;19.25;17.45;;;;;;;;;;4932051;29;20392;-56
2023/08/03 11:46:07;;;;;;;19.20;17.40;;;;;;;;;;4931922;28;20034;-55
2023/08/03 11:48:33;;;;;;;18.58;16.77;;;;;;;;;;4932780;28;20032;-52
2023/08/03 11:50:59;;;;;;;18.35;16.55;;;;;;;;;;4932949;29;20166;-55
2023/08/03 11:53:26;;;;;;;18.30;16.50;;;;;;;;;;4931009;28;20384;-56
2023/08/03 11:55:52;;;;;;;16.95;15.25;;;;;;;;;;4931377;28;20400;-57
2023/08/03 11:58:25;;;;;;;18.10;16.30;;;;;;;;;;4931833;28;20035;-57
2023/08/03 12:00:57;;;;;;;18.73;16.92;;;;;;;;;;4931854;28;20515;-57
2023/08/03 12:03:31;;;;;;;18.77;16.98;;;;;;;;;;4931902;29;20028;-55
2023/08/03 12:06:00;;;;;;;18.40;16.60;;;;;;;;;;4930127;28;20027;-51
2023/08/03 12:08:26;;;;;;;18.95;17.15;;;;;;;;;;4932152;28;20034;-54
2023/08/03 12:11:06;;;;;;;19.55;17.75;;;;;;;;;;4931268;28;20119;-55
2023/08/03 12:13:32;;;;;;;18.88;17.08;;;;;;;;;;4931980;29;20094;-55
2023/08/03 12:15:58;;;;;;;19.60;17.70;;;;;;;;;;4931508;28;20488;-55
2023/08/03 12:18:24;;;;;;;19.08;17.27;;;;;;;;;;4932497;28;20510;-54
2023/08/03 12:20:50;;;;;;;19.65;17.85;;;;;;;;;;4932164;28;20024;-51
2023/08/03 12:23:19;;;;;;;18.75;16.95;;;;;;;;;;4932067;29;20066;-55
2023/08/03 12:25:45;;;;;;;19.15;17.35;;;;;;;;;;4930751;29;20032;-55
2023/08/03 12:28:12;;;;;;;17.92;16.17;;;;;;;;;;4933499;28;20028;-51
2023/08/03 12:30:38;;;;;;;15.00;12.80;;;;;;;;;;4930790;28;20514;-56
2023/08/03 12:33:05;;;;;;;14.05;10.10;;;;;;;;;;4931957;28;20035;-56
2023/08/03 12:35:31;;;;;;;14.00;9.90;;;;;;;;;;4935366;28;20073;-54
2023/08/03 12:37:57;;;;;;;13.68;9.00;;;;;;;;;;4950924;28;20038;-55
2023/08/03 12:40:23;;;;;;;13.57;8.75;;;;;;;;;;4950862;28;20024;-51
2023/08/03 12:42:49;;;;;;;12.73;7.50;;;;;;;;;;4950647;28;20023;-54
2023/08/03 12:45:15;;;;;;;11.88;6.90;;;;;;;;;;4949517;28;20034;-54
2023/08/03 12:47:41;;;;;;;11.77;6.93;;;;;;;;;;4950511;28;20032;-51
2023/08/03 12:50:07;;;;;;;38.00;8.20;;;;;;;;;;4950482;28;20046;-53
2023/08/03 12:52:34;;;;;;;12.23;7.20;;;;;;;;;;4949812;28;20033;-55
2023/08/03 12:55:00;;;;;;;12.70;7.40;;;;;;;;;;4945884;28;20499;-56
2023/08/03 12:57:26;;;;;;;13.25;8.00;;;;;;;;;;4943088;28;20031;-55
2023/08/03 12:59:53;;;;;;;12.30;7.22;;;;;;;;;;4602309;28;10000482;-57
2023/08/03 13:02:19;;;;;;;12.68;7.40;;;;;;;;;;4945104;28;20079;-52
2023/08/03 13:04:50;;;;;;;12.60;7.40;;;;;;;;;;4945491;28;20024;-57
2023/08/03 13:07:16;;;;;;;12.35;7.20;;;;;;;;;;4946908;28;20085;-54
2023/08/03 13:09:42;;;;;;;14.40;8.32;;;;;;;;;;4925850;28;20031;-54
2023/08/03 13:12:09;;;;;;;10.07;5.97;;;;;;;;;;4927335;29;20659;-55
2023/08/03 13:14:35;;;;;;;11.20;6.63;;;;;;;;;;4926484;28;20094;-55
2023/08/03 13:17:01;;;;;;;10.73;6.30;;;;;;;;;;4932003;28;20034;-57
2023/08/03 13:19:28;;;;;;;10.70;6.30;;;;;;;;;;4938456;29;20047;-57
2023/08/03 13:21:54;;;;;;;10.07;5.95;;;;;;;;;;4946274;28;20027;-53
2023/08/03 13:24:23;;;;;;;9.40;5.53;;;;;;;;;;4944151;28;20091;-56
2023/08/03 13:26:49;;;;;;;10.55;6.57;;;;;;;;;;4947083;28;20408;-55
2023/08/03 13:29:17;;;;;;;9.30;5.50;;;;;;;;;;4946719;28;20487;-54
2023/08/03 13:31:43;;;;;;;10.33;6.10;;;;;;;;;;4942326;28;20028;-54
2023/08/03 13:34:09;;;;;;;9.60;5.70;;;;;;;;;;4936491;28;20344;-51
2023/08/03 13:36:35;;;;;;;9.40;5.60;;;;;;;;;;4937243;28;20097;-55
2023/08/03 13:39:03;;;;;;;11.20;6.85;;;;;;;;;;4937564;28;20117;-58
2023/08/03 13:41:30;;;;;;;10.00;5.90;;;;;;;;;;4593899;28;9999888;-57
2023/08/03 13:43:56;;;;;;;10.05;5.95;;;;;;;;;;4945657;28;20034;-53
2023/08/03 13:46:22;;;;;;;9.60;5.70;;;;;;;;;;4946026;28;20415;-57
2023/08/03 13:48:48;;;;;;;9.85;5.80;;;;;;;;;;4946288;28;20117;-55
2023/08/03 13:51:14;;;;;;;10.77;6.38;;;;;;;;;;4946350;28;20089;-57
2023/08/03 13:53:40;;;;;;;10.40;6.18;;;;;;;;;;4945682;28;20472;-50
2023/08/03 13:56:07;;;;;;;11.00;6.47;;;;;;;;;;4947288;28;20031;-56
2023/08/03 13:58:33;;;;;;;10.50;6.18;;;;;;;;;;4948810;28;20035;-52
2023/08/03 14:01:00;;;;;;;11.20;6.60;;;;;;;;;;4947677;28;20023;-54
2023/08/03 14:03:26;;;;;;;11.07;6.45;;;;;;;;;;4605437;28;9999882;-57
2023/08/03 14:05:52;;;;;;;10.18;6.00;;;;;;;;;;4946075;28;20415;-58
2023/08/03 14:08:18;;;;;;;10.70;6.30;;;;;;;;;;4945790;28;20038;-57
2023/08/03 14:10:44;;;;;;;11.52;7.13;;;;;;;;;;4946179;28;20034;-55
2023/08/03 14:13:10;;;;;;;10.60;6.30;;;;;;;;;;4946365;28;20027;-59
2023/08/03 14:15:36;;;;;;;10.52;6.20;;;;;;;;;;4944792;28;20411;-59
2023/08/03 14:18:02;;;;;;;15.20;7.88;;;;;;;;;;4945292;28;20067;-56
2023/08/03 14:20:28;;;;;;;16.50;7.75;;;;;;;;;;4937432;29;20031;-57